createdAt,value
2018-09-10T00:02:42.159Z,10.90
2018-09-10T00:05:11.635Z,10.90
2018-09-10T00:07:40.621Z,10.90
2018-09-10T01:02:56.052Z,10.80
2018-09-10T01:05:25.103Z,10.80
2018-09-10T01:07:54.094Z,11.00
2018-09-10T01:10:23.255Z,11.20
2018-09-10T02:02:48.679Z,9.90
2018-09-10T02:05:17.667Z,9.90
2018-09-10T02:07:46.676Z,10.10
2018-09-10T02:10:15.884Z,10.20
2018-09-10T03:02:42.673Z,9.30
2018-09-10T03:05:11.704Z,9.40
2018-09-10T03:07:40.743Z,9.50
2018-09-10T04:03:10.126Z,9.00
2018-09-10T04:05:39.137Z,9.10
2018-09-10T04:08:08.159Z,9.30
2018-09-10T04:10:37.422Z,9.50
2018-09-10T05:03:18.832Z,10.40
2018-09-10T05:05:47.813Z,10.60
2018-09-10T05:08:16.802Z,10.90
2018-09-10T05:10:46.188Z,11.20
2018-09-10T06:02:39.791Z,12.80
2018-09-10T06:05:08.758Z,12.80
2018-09-10T06:07:37.756Z,13.20
2018-09-10T06:10:07.153Z,13.60
2018-09-10T07:02:37.745Z,16.00
2018-09-10T07:05:06.771Z,16.20
2018-09-10T07:07:49.581Z,16.40
2018-09-10T08:02:37.290Z,18.40
2018-09-10T08:05:06.412Z,18.60
2018-09-10T08:07:35.401Z,18.80
2018-09-10T08:10:04.583Z,19.10
2018-09-10T09:02:37.462Z,20.50
2018-09-10T09:05:06.509Z,20.60
2018-09-10T09:07:35.527Z,20.70
2018-09-10T09:10:04.727Z,21.00
2018-09-10T10:02:48.170Z,21.60
2018-09-10T10:05:17.277Z,21.70
2018-09-10T10:07:46.289Z,21.80
2018-09-10T11:02:39.721Z,22.20
2018-09-10T11:05:08.757Z,22.30
2018-09-10T11:07:37.817Z,22.50
2018-09-10T12:02:47.222Z,22.60
2018-09-10T12:05:31.268Z,22.60
2018-09-10T12:08:00.373Z,22.90
2018-09-10T13:02:42.254Z,22.90
2018-09-10T13:05:11.365Z,23.00
2018-09-10T13:07:40.488Z,23.20
2018-09-10T13:10:10.469Z,23.60
2018-09-10T14:02:40.005Z,23.90
2018-09-10T14:05:09.005Z,23.60
2018-09-10T14:07:38.018Z,23.70
2018-09-10T15:02:46.652Z,21.50
2018-09-10T15:05:15.676Z,21.50
2018-09-10T15:07:44.724Z,21.60
2018-09-10T16:02:36.889Z,18.80
2018-09-10T16:05:06.027Z,18.70
2018-09-10T16:07:35.827Z,18.80
2018-09-10T16:10:05.124Z,18.90
2018-09-10T16:12:34.138Z,19.00
2018-09-10T16:15:03.114Z,19.10
2018-09-10T16:17:32.257Z,19.20
2018-09-10T16:20:01.275Z,19.20
2018-09-10T16:22:30.301Z,19.20
2018-09-10T16:24:59.435Z,19.20
2018-09-10T16:27:28.441Z,19.10
2018-09-10T16:29:57.464Z,19.10
2018-09-10T16:32:26.915Z,19.00
2018-09-10T16:34:56.069Z,18.90
2018-09-10T16:37:25.096Z,18.90
2018-09-10T16:39:54.409Z,18.80
2018-09-10T16:42:23.483Z,18.60
2018-09-10T16:44:52.609Z,18.50
2018-09-10T16:47:21.862Z,18.40
2018-09-10T16:49:50.909Z,18.30
2018-09-10T16:52:19.894Z,18.10
2018-09-10T16:54:49.142Z,18.00
2018-09-10T16:57:18.058Z,17.90
2018-09-10T16:59:47.105Z,17.80
2018-09-10T17:02:16.297Z,17.70
2018-09-10T17:04:45.318Z,17.60
2018-09-10T17:07:14.341Z,17.50
2018-09-10T17:09:43.547Z,17.40
2018-09-10T18:03:22.549Z,15.70
2018-09-10T18:05:51.649Z,15.70
2018-09-10T18:08:20.684Z,15.60
2018-09-10T18:10:49.946Z,15.70
2018-09-10T19:02:39.268Z,13.00
2018-09-10T19:05:08.641Z,13.00
2018-09-10T19:07:37.704Z,13.10
2018-09-10T20:02:44.857Z,11.80
2018-09-10T20:05:13.958Z,11.90
2018-09-10T20:07:43.158Z,12.00
2018-09-10T20:10:13.394Z,12.20
2018-09-10T21:02:37.854Z,11.10
2018-09-10T21:05:06.886Z,11.20
2018-09-10T21:07:35.972Z,11.40
2018-09-10T21:10:05.545Z,11.60
2018-09-10T22:03:00.121Z,10.30
2018-09-10T22:05:29.147Z,10.40
2018-09-10T22:07:58.213Z,10.50
2018-09-10T22:10:27.422Z,10.70
2018-09-10T23:02:36.834Z,9.60
2018-09-10T23:05:05.927Z,9.60
2018-09-10T23:07:34.919Z,9.70
2018-09-10T23:10:04.145Z,9.90
